Austinville, Iowa
Current Conditions -  °F | °C
As of 6:15 PM on Wednesday 28 Jan 2015 (Local Time) from KIFA Reporting Station
Clear Clear  
Wind Chill: 28°   Ceiling: Unl
Heat Index: 35°   Visibility: 7mi
Dew Point: 32°   Wind: 9mph
Humidity: 90%   Direction: 110°ESE
Pressure: 29.74"   Gusts: NA
Location:  42.59°N, 92.96°W
Report Text: KIFA 290015Z AUTO 11008KT 7SM CLR 02/00 A2974 RMK AO2 T00170002
Loading
Personal Weather Stations






























Interactive Weather Map New forecast layout! Learn more

10-Day Weather Forecast

Advertisements
Track Severe Weather on mobile